Tayabas, Philippines

10:31 AM PHT on August 28, 2014 (GMT +0800)
Masalukot II Candelaria | Change Station
CLOSE
Current Station
Personal Weather Station
Location: Candelaria, CALABARZON
Elevation: 295 ft
Nearby Weather Stations

Elev 295 ft 13.94 °N, 121.42 °E | Updated 2 minutes ago

Mostly Cloudy
Mostly Cloudy
81.0 °F
Feels Like 87 °F
N
0.0
Wind Variable Wind from NNW
Gusts 0.0 mph

Today
High -- | Low -- °F
--% Chance of Precip.
Yesterday
High -- | Low -- °F
Precip. -- in
5:41 AM 6:08 PM
Waxing Crescent, 6% visible
Pressure 29.89 in
Visibility 5.6 miles
Clouds Scattered Clouds 2300 ft
Mostly Cloudy 10000 ft
Heat Index 87 °F
Dew Point 76 °F
Humidity 85%
Rainfall 0.20 in
Snow Depth Not available.
UV 8 out of 12
Pollen Not available.
Air Quality Not available.
Flu Activity Not available.
METAR RPLL 280200Z 12005KT 060V160 9000 SCT023 BKN100 27/25 Q1012 NOSIG RMK A2988

More Conditions Fewer Conditions

Pressure 29.89 in
Visibility 5.6 miles
Clouds Scattered Clouds 2300 ft
Mostly Cloudy 10000 ft
Heat Index 87 °F
Dew Point 76 °F
Humidity 85%
Rainfall 0.20 in
Snow Depth Not available.
UV 8 out of 12
Pollen Not available.
Air Quality Not available.
Flu Activity Not available.
METAR RPLL 280200Z 12005KT 060V160 9000 SCT023 BKN100 27/25 Q1012 NOSIG RMK A2988

More Conditions Fewer Conditions

10-Day Weather Forecast

Almanac

Astronomy

Aug. 28, 2014 Rise Set
Actual Time 5:41 AM PHT 6:08 PM PHT
Civil Twilight 5:19 AM PHT 6:29 PM PHT
Nautical Twilight 4:54 AM PHT 6:55 PM PHT
Astronomical Twilight 4:29 AM PHT 7:20 PM PHT
Moon 7:31 AM PHT 7:46 PM PHT
Length of Visible Light 13h 09m
Length of Day
12h 26m
Tomorrow will be 0m 45s shorter.
Waxing Crescent, 6% of the Moon is Illuminated
Aug 27
Waxing Crescent
Sep 2
First Quarter
Sep 8
Full
Sep 15
Last Quarter
Sep 24
New

Yesterday's Extremes

Country Highs Country Lows

Community

WunderPhotos

Upload Photos

1,747,872 photos uploaded!

Nearby

Snow Depth

Not available.

Earthquake Activity

City Distance Mag. Time & Date
No recent earthquake activity has been reported nearby.
Minimum magnitude displayed is 2.5.

Coastal Water Temperatures

Place Temperature
No Stations Reporting

Nearby Weather Stations